sensor_id;sensor_type;location;lat;lon;timestamp;pressure;altitude;pressure_sealevel;temperature;humidity
35519;BME280;21627;48.216;16.482;2022-12-10T00:01:49;98484.84;;;1.86;100.00
35519;BME280;21627;48.216;16.482;2022-12-10T00:04:17;98496.06;;;1.98;100.00
35519;BME280;21627;48.216;16.482;2022-12-10T00:06:46;98502.00;;;1.98;100.00
35519;BME280;21627;48.216;16.482;2022-12-10T00:09:17;98502.88;;;2.00;100.00
35519;BME280;21627;48.216;16.482;2022-12-10T00:11:44;98501.13;;;1.96;100.00
35519;BME280;21627;48.216;16.482;2022-12-10T00:14:13;98500.41;;;2.06;100.00
35519;BME280;21627;48.216;16.482;2022-12-10T00:16:41;98499.56;;;2.04;100.00
35519;BME280;21627;48.216;16.482;2022-12-10T00:19:08;98506.31;;;2.02;100.00
35519;BME280;21627;48.216;16.482;2022-12-10T00:21:36;98508.88;;;2.02;100.00
35519;BME280;21627;48.216;16.482;2022-12-10T00:24:04;98487.50;;;1.94;100.00
35519;BME280;21627;48.216;16.482;2022-12-10T00:26:36;98485.81;;;1.96;100.00
35519;BME280;21627;48.216;16.482;2022-12-10T00:29:06;98509.72;;;2.03;100.00
35519;BME280;21627;48.216;16.482;2022-12-10T00:31:35;98511.41;;;2.02;100.00
35519;BME280;21627;48.216;16.482;2022-12-10T00:34:06;98512.25;;;2.01;100.00
35519;BME280;21627;48.216;16.482;2022-12-10T00:36:44;98505.50;;;2.05;100.00
35519;BME280;21627;48.216;16.482;2022-12-10T00:39:15;98494.38;;;2.00;100.00
35519;BME280;21627;48.216;16.482;2022-12-10T00:41:43;98508.91;;;2.05;100.00
35519;BME280;21627;48.216;16.482;2022-12-10T00:44:10;98501.19;;;2.01;100.00
35519;BME280;21627;48.216;16.482;2022-12-10T00:46:38;98509.78;;;2.09;100.00
35519;BME280;21627;48.216;16.482;2022-12-10T00:49:05;98520.00;;;2.07;100.00
35519;BME280;21627;48.216;16.482;2022-12-10T00:51:32;98511.38;;;2.01;100.00
35519;BME280;21627;48.216;16.482;2022-12-10T00:53:59;98531.06;;;2.09;100.00
35519;BME280;21627;48.216;16.482;2022-12-10T00:56:30;98530.19;;;2.09;100.00
35519;BME280;21627;48.216;16.482;2022-12-10T00:58:58;98534.44;;;2.08;100.00
35519;BME280;21627;48.216;16.482;2022-12-10T01:01:31;98542.03;;;2.05;100.00
35519;BME280;21627;48.216;16.482;2022-12-10T01:04:05;98527.63;;;2.09;100.00
35519;BME280;21627;48.216;16.482;2022-12-10T01:06:45;98541.22;;;2.08;100.00
35519;BME280;21627;48.216;16.482;2022-12-10T01:09:16;98544.56;;;2.02;100.00
35519;BME280;21627;48.216;16.482;2022-12-10T01:11:46;98544.66;;;2.11;100.00
35519;BME280;21627;48.216;16.482;2022-12-10T01:14:20;98531.09;;;2.12;100.00
35519;BME280;21627;48.216;16.482;2022-12-10T01:16:49;98515.66;;;2.03;100.00
35519;BME280;21627;48.216;16.482;2022-12-10T01:19:19;98513.97;;;2.04;100.00
35519;BME280;21627;48.216;16.482;2022-12-10T01:21:52;98513.13;;;2.03;100.00
35519;BME280;21627;48.216;16.482;2022-12-10T01:24:25;98525.84;;;2.00;100.00
35519;BME280;21627;48.216;16.482;2022-12-10T01:26:53;98543.81;;;2.09;100.00
35519;BME280;21627;48.216;16.482;2022-12-10T01:29:25;98539.53;;;2.08;100.00
35519;BME280;21627;48.216;16.482;2022-12-10T01:31:55;98538.69;;;2.08;100.00
35519;BME280;21627;48.216;16.482;2022-12-10T01:34:24;98539.53;;;2.08;100.00
35519;BME280;21627;48.216;16.482;2022-12-10T01:36:53;98543.81;;;2.11;100.00
35519;BME280;21627;48.216;16.482;2022-12-10T01:39:22;98554.03;;;2.11;100.00
35519;BME280;21627;48.216;16.482;2022-12-10T01:41:54;98560.81;;;2.10;100.00
35519;BME280;21627;48.216;16.482;2022-12-10T01:46:53;98551.50;;;2.14;100.00
35519;BME280;21627;48.216;16.482;2022-12-10T01:49:27;98559.16;;;2.14;100.00
35519;BME280;21627;48.216;16.482;2022-12-10T01:51:58;98536.03;;;2.00;100.00
35519;BME280;21627;48.216;16.482;2022-12-10T01:54:41;98557.50;;;2.14;100.00
35519;BME280;21627;48.216;16.482;2022-12-10T01:57:26;98526.78;;;2.08;100.00
35519;BME280;21627;48.216;16.482;2022-12-10T02:00:04;98520.00;;;2.09;100.00
35519;BME280;21627;48.216;16.482;2022-12-10T02:02:49;98532.91;;;2.20;100.00
35519;BME280;21627;48.216;16.482;2022-12-10T02:05:32;98529.38;;;2.11;100.00
35519;BME280;21627;48.216;16.482;2022-12-10T02:08:24;98557.50;;;2.16;100.00
35519;BME280;21627;48.216;16.482;2022-12-10T02:11:17;98560.06;;;2.19;100.00
35519;BME280;21627;48.216;16.482;2022-12-10T02:14:02;98534.47;;;2.10;100.00
35519;BME280;21627;48.216;16.482;2022-12-10T02:16:40;98545.56;;;2.13;100.00
35519;BME280;21627;48.216;16.482;2022-12-10T02:22:14;98541.91;;;1.96;100.00
35519;BME280;21627;48.216;16.482;2022-12-10T02:24:47;98568.47;;;2.10;100.00
35519;BME280;21627;48.216;16.482;2022-12-10T02:30:41;98563.41;;;2.13;100.00
35519;BME280;21627;48.216;16.482;2022-12-10T02:33:10;98566.88;;;2.17;100.00
35519;BME280;21627;48.216;16.482;2022-12-10T02:35:39;98542.13;;;2.11;100.00
35519;BME280;21627;48.216;16.482;2022-12-10T02:38:32;98563.41;;;2.13;100.00
35519;BME280;21627;48.216;16.482;2022-12-10T02:41:06;98576.91;;;2.06;100.00
35519;BME280;21627;48.216;16.482;2022-12-10T02:43:34;98573.56;;;2.10;100.00
35519;BME280;21627;48.216;16.482;2022-12-10T02:46:04;98568.50;;;2.13;100.00
35519;BME280;21627;48.216;16.482;2022-12-10T02:48:33;98548.78;;;2.00;100.00
35519;BME280;21627;48.216;16.482;2022-12-10T02:51:01;98571.09;;;2.16;100.00
35519;BME280;21627;48.216;16.482;2022-12-10T02:53:28;98576.06;;;2.07;100.00
35519;BME280;21627;48.216;16.482;2022-12-10T02:56:43;98590.66;;;2.17;100.00
35519;BME280;21627;48.216;16.482;2022-12-10T03:02:29;98586.38;;;2.15;100.00
35519;BME280;21627;48.216;16.482;2022-12-10T03:07:58;98588.94;;;2.16;100.00
35519;BME280;21627;48.216;16.482;2022-12-10T03:10:55;98577.81;;;2.10;100.00
35519;BME280;21627;48.216;16.482;2022-12-10T03:13:35;98565.03;;;2.08;100.00
35519;BME280;21627;48.216;16.482;2022-12-10T03:16:04;98539.31;;;1.93;100.00
35519;BME280;21627;48.216;16.482;2022-12-10T03:18:34;98570.06;;;2.04;100.00
35519;BME280;21627;48.216;16.482;2022-12-10T03:21:05;98576.13;;;2.10;100.00
35519;BME280;21627;48.216;16.482;2022-12-10T03:23:36;98563.09;;;1.92;100.00
35519;BME280;21627;48.216;16.482;2022-12-10T03:26:05;98560.59;;;1.95;100.00
35519;BME280;21627;48.216;16.482;2022-12-10T03:28:47;98564.03;;;1.97;100.00
35519;BME280;21627;48.216;16.482;2022-12-10T03:31:17;98573.41;;;2.01;100.00
35519;BME280;21627;48.216;16.482;2022-12-10T03:33:46;98576.78;;;1.99;100.00
35519;BME280;21627;48.216;16.482;2022-12-10T03:36:16;98580.22;;;2.01;100.00
35519;BME280;21627;48.216;16.482;2022-12-10T03:38:43;98576.13;;;2.10;100.00
35519;BME280;21627;48.216;16.482;2022-12-10T03:41:10;98589.63;;;2.05;100.00
35519;BME280;21627;48.216;16.482;2022-12-10T03:43:57;98594.75;;;2.05;100.00
35519;BME280;21627;48.216;16.482;2022-12-10T03:46:27;98593.00;;;2.04;100.00
35519;BME280;21627;48.216;16.482;2022-12-10T03:48:56;98593.88;;;2.06;100.00
35519;BME280;21627;48.216;16.482;2022-12-10T03:51:24;98597.28;;;2.06;100.00
35519;BME280;21627;48.216;16.482;2022-12-10T03:53:51;98599.00;;;2.06;100.00
35519;BME280;21627;48.216;16.482;2022-12-10T03:56:19;98605.81;;;2.08;100.00
35519;BME280;21627;48.216;16.482;2022-12-10T03:58:47;98600.66;;;2.02;100.00
35519;BME280;21627;48.216;16.482;2022-12-10T04:01:15;98620.22;;;2.06;100.00
35519;BME280;21627;48.216;16.482;2022-12-10T04:03:43;98629.56;;;2.04;100.00
35519;BME280;21627;48.216;16.482;2022-12-10T04:06:17;98619.22;;;1.95;100.00
35519;BME280;21627;48.216;16.482;2022-12-10T04:08:45;98639.00;;;2.11;100.00
35519;BME280;21627;48.216;16.482;2022-12-10T04:11:15;98637.31;;;2.10;100.00
35519;BME280;21627;48.216;16.482;2022-12-10T04:13:43;98640.63;;;2.05;100.00
35519;BME280;21627;48.216;16.482;2022-12-10T04:16:29;98632.97;;;2.06;100.00
35519;BME280;21627;48.216;16.482;2022-12-10T04:19:07;98623.50;;;1.98;100.00
35519;BME280;21627;48.216;16.482;2022-12-10T04:21:37;98623.63;;;2.05;100.00
35519;BME280;21627;48.216;16.482;2022-12-10T04:24:27;98623.72;;;2.10;100.00
35519;BME280;21627;48.216;16.482;2022-12-10T04:27:24;98630.50;;;2.11;100.00
35519;BME280;21627;48.216;16.482;2022-12-10T04:29:54;98624.47;;;2.06;100.00
35519;BME280;21627;48.216;16.482;2022-12-10T04:32:23;98622.75;;;2.03;100.00
35519;BME280;21627;48.216;16.482;2022-12-10T04:34:51;98630.47;;;2.08;100.00
35519;BME280;21627;48.216;16.482;2022-12-10T04:37:19;98633.06;;;2.11;100.00
35519;BME280;21627;48.216;16.482;2022-12-10T04:39:47;98625.31;;;2.05;100.00
35519;BME280;21627;48.216;16.482;2022-12-10T04:42:14;98638.22;;;2.15;100.00
35519;BME280;21627;48.216;16.482;2022-12-10T04:44:41;98635.66;;;2.12;100.00
35519;BME280;21627;48.216;16.482;2022-12-10T04:47:09;98622.88;;;2.11;100.00
35519;BME280;21627;48.216;16.482;2022-12-10T04:49:38;98627.91;;;2.08;100.00
35519;BME280;21627;48.216;16.482;2022-12-10T04:52:06;98623.66;;;2.08;100.00
35519;BME280;21627;48.216;16.482;2022-12-10T04:54:34;98621.13;;;2.08;100.00
35519;BME280;21627;48.216;16.482;2022-12-10T04:57:06;98620.28;;;2.08;100.00
35519;BME280;21627;48.216;16.482;2022-12-10T04:59:35;98621.22;;;2.14;100.00
35519;BME280;21627;48.216;16.482;2022-12-10T05:02:04;98617.78;;;2.12;100.00
35519;BME280;21627;48.216;16.482;2022-12-10T05:04:32;98606.66;;;2.07;100.00
35519;BME280;21627;48.216;16.482;2022-12-10T05:06:59;98610.03;;;2.06;100.00
35519;BME280;21627;48.216;16.482;2022-12-10T05:09:27;98613.47;;;2.08;100.00
35519;BME280;21627;48.216;16.482;2022-12-10T05:11:54;98618.69;;;2.14;100.00
35519;BME280;21627;48.216;16.482;2022-12-10T05:14:21;98611.03;;;2.14;100.00
35519;BME280;21627;48.216;16.482;2022-12-10T05:16:51;98611.97;;;2.20;100.00
35519;BME280;21627;48.216;16.482;2022-12-10T05:19:19;98612.78;;;2.19;100.00
35519;BME280;21627;48.216;16.482;2022-12-10T05:21:50;98613.59;;;2.14;100.00
35519;BME280;21627;48.216;16.482;2022-12-10T05:24:36;98615.25;;;2.14;100.00
35519;BME280;21627;48.216;16.482;2022-12-10T05:27:04;98606.66;;;2.07;100.00
35519;BME280;21627;48.216;16.482;2022-12-10T05:29:34;98616.94;;;2.13;100.00
35519;BME280;21627;48.216;16.482;2022-12-10T05:32:03;98618.56;;;2.08;100.00
35519;BME280;21627;48.216;16.482;2022-12-10T05:34:31;98602.41;;;2.08;100.00
35519;BME280;21627;48.216;16.482;2022-12-10T05:36:58;98611.78;;;2.09;100.00
35519;BME280;21627;48.216;16.482;2022-12-10T05:39:25;98616.06;;;2.11;100.00
35519;BME280;21627;48.216;16.482;2022-12-10T05:41:52;98613.50;;;2.11;100.00
35519;BME280;21627;48.216;16.482;2022-12-10T05:44:19;98627.16;;;2.13;100.00
35519;BME280;21627;48.216;16.482;2022-12-10T05:46:47;98608.28;;;2.04;100.00
35519;BME280;21627;48.216;16.482;2022-12-10T05:49:14;98614.25;;;2.03;100.00
35519;BME280;21627;48.216;16.482;2022-12-10T05:51:41;98619.38;;;2.04;100.00
35519;BME280;21627;48.216;16.482;2022-12-10T05:54:09;98630.50;;;2.09;100.00
35519;BME280;21627;48.216;16.482;2022-12-10T05:56:37;98627.03;;;2.04;100.00
35519;BME280;21627;48.216;16.482;2022-12-10T05:59:04;98633.06;;;2.11;100.00
35519;BME280;21627;48.216;16.482;2022-12-10T06:01:37;98636.47;;;2.10;100.00
35519;BME280;21627;48.216;16.482;2022-12-10T06:04:05;98644.16;;;2.13;100.00
35519;BME280;21627;48.216;16.482;2022-12-10T06:06:36;98651.75;;;2.11;100.00
35519;BME280;21627;48.216;16.482;2022-12-10T06:09:06;98642.28;;;2.03;100.00
35519;BME280;21627;48.216;16.482;2022-12-10T06:11:33;98665.31;;;2.09;100.00
35519;BME280;21627;48.216;16.482;2022-12-10T06:14:00;98673.84;;;2.09;100.00
35519;BME280;21627;48.216;16.482;2022-12-10T06:16:29;98674.59;;;2.04;100.00
35519;BME280;21627;48.216;16.482;2022-12-10T06:18:57;98682.34;;;2.11;100.00
35519;BME280;21627;48.216;16.482;2022-12-10T06:21:24;98675.56;;;2.10;100.00
35519;BME280;21627;48.216;16.482;2022-12-10T06:23:52;98653.34;;;2.03;100.00
35519;BME280;21627;48.216;16.482;2022-12-10T06:26:24;98668.75;;;2.09;100.00
35519;BME280;21627;48.216;16.482;2022-12-10T06:28:53;98665.28;;;2.04;100.00
35519;BME280;21627;48.216;16.482;2022-12-10T06:31:21;98680.59;;;2.07;100.00
35519;BME280;21627;48.216;16.482;2022-12-10T06:33:49;98683.13;;;2.06;100.00
35519;BME280;21627;48.216;16.482;2022-12-10T06:36:18;98677.97;;;2.03;100.00
35519;BME280;21627;48.216;16.482;2022-12-10T06:38:46;98699.34;;;2.11;100.00
35519;BME280;21627;48.216;16.482;2022-12-10T06:41:17;98679.50;;;1.93;100.00
35519;BME280;21627;48.216;16.482;2022-12-10T06:43:44;98680.34;;;1.92;100.00
35519;BME280;21627;48.216;16.482;2022-12-10T06:46:15;98693.22;;;2.00;100.00
35519;BME280;21627;48.216;16.482;2022-12-10T06:48:43;98706.09;;;2.09;100.00
35519;BME280;21627;48.216;16.482;2022-12-10T06:51:12;98703.66;;;2.13;100.00
35519;BME280;21627;48.216;16.482;2022-12-10T06:53:40;98692.53;;;2.10;100.00
35519;BME280;21627;48.216;16.482;2022-12-10T06:56:09;98678.06;;;2.09;100.00
35519;BME280;21627;48.216;16.482;2022-12-10T06:58:38;98687.41;;;2.08;100.00
35519;BME280;21627;48.216;16.482;2022-12-10T07:01:20;98671.19;;;2.03;100.00
35519;BME280;21627;48.216;16.482;2022-12-10T07:03:52;98685.72;;;2.07;100.00
35519;BME280;21627;48.216;16.482;2022-12-10T07:06:20;98684.84;;;2.07;100.00
35519;BME280;21627;48.216;16.482;2022-12-10T07:08:47;98678.91;;;2.08;100.00
35519;BME280;21627;48.216;16.482;2022-12-10T07:11:18;98684.97;;;2.14;100.00
35519;BME280;21627;48.216;16.482;2022-12-10T07:13:46;98687.53;;;2.14;100.00
35519;BME280;21627;48.216;16.482;2022-12-10T07:16:26;98672.13;;;2.08;100.00
35519;BME280;21627;48.216;16.482;2022-12-10T07:18:56;98674.69;;;2.11;100.00
35519;BME280;21627;48.216;16.482;2022-12-10T07:21:33;98684.97;;;2.14;100.00
35519;BME280;21627;48.216;16.482;2022-12-10T07:24:08;98679.88;;;2.14;100.00
35519;BME280;21627;48.216;16.482;2022-12-10T07:26:41;98662.75;;;2.07;100.00
35519;BME280;21627;48.216;16.482;2022-12-10T07:29:17;98678.22;;;2.18;100.00
35519;BME280;21627;48.216;16.482;2022-12-10T07:31:45;98666.19;;;2.09;100.00
35519;BME280;21627;48.216;16.482;2022-12-10T07:34:12;98642.38;;;2.09;100.00
35519;BME280;21627;48.216;16.482;2022-12-10T07:36:39;98649.25;;;2.13;100.00
35519;BME280;21627;48.216;16.482;2022-12-10T07:39:09;98641.63;;;2.14;100.00
35519;BME280;21627;48.216;16.482;2022-12-10T07:41:36;98651.06;;;2.22;100.00
35519;BME280;21627;48.216;16.482;2022-12-10T07:44:04;98645.16;;;2.23;100.00
35519;BME280;21627;48.216;16.482;2022-12-10T07:46:33;98647.66;;;2.20;100.00
35519;BME280;21627;48.216;16.482;2022-12-10T07:49:02;98652.00;;;2.25;100.00
35519;BME280;21627;48.216;16.482;2022-12-10T07:51:30;98657.16;;;2.30;100.00
35519;BME280;21627;48.216;16.482;2022-12-10T07:53:57;98645.22;;;2.27;100.00
35519;BME280;21627;48.216;16.482;2022-12-10T07:56:24;98626.41;;;2.21;100.00
35519;BME280;21627;48.216;16.482;2022-12-10T07:58:55;98639.31;;;2.30;100.00
35519;BME280;21627;48.216;16.482;2022-12-10T08:01:25;98638.47;;;2.31;100.00
35519;BME280;21627;48.216;16.482;2022-12-10T08:03:54;98637.56;;;2.27;100.00
35519;BME280;21627;48.216;16.482;2022-12-10T08:06:26;98645.22;;;2.29;100.00
35519;BME280;21627;48.216;16.482;2022-12-10T08:08:54;98658.91;;;2.34;100.00
35519;BME280;21627;48.216;16.482;2022-12-10T08:11:22;98660.72;;;2.40;100.00
35519;BME280;21627;48.216;16.482;2022-12-10T08:13:50;98656.34;;;2.34;100.00
35519;BME280;21627;48.216;16.482;2022-12-10T08:16:26;98632.41;;;2.23;100.00
35519;BME280;21627;48.216;16.482;2022-12-10T08:18:56;98650.41;;;2.32;100.00
35519;BME280;21627;48.216;16.482;2022-12-10T08:21:30;98658.22;;;2.44;100.00
35519;BME280;21627;48.216;16.482;2022-12-10T08:23:58;98647.03;;;2.36;100.00
35519;BME280;21627;48.216;16.482;2022-12-10T08:26:29;98660.84;;;2.47;100.00
35519;BME280;21627;48.216;16.482;2022-12-10T08:28:57;98663.38;;;2.47;100.00
35519;BME280;21627;48.216;16.482;2022-12-10T08:31:26;98647.13;;;2.41;100.00
35519;BME280;21627;48.216;16.482;2022-12-10T08:33:57;98662.41;;;2.41;100.00
35519;BME280;21627;48.216;16.482;2022-12-10T08:36:24;98661.00;;;2.61;100.00
35519;BME280;21627;48.216;16.482;2022-12-10T08:38:51;98671.31;;;2.69;100.00
35519;BME280;21627;48.216;16.482;2022-12-10T08:41:21;98671.28;;;2.66;100.00
35519;BME280;21627;48.216;16.482;2022-12-10T08:43:51;98672.06;;;2.62;100.00
35519;BME280;21627;48.216;16.482;2022-12-10T08:46:18;98663.59;;;2.63;100.00
35519;BME280;21627;48.216;16.482;2022-12-10T08:48:46;98672.91;;;2.60;100.00
35519;BME280;21627;48.216;16.482;2022-12-10T08:51:16;98672.91;;;2.60;100.00
35519;BME280;21627;48.216;16.482;2022-12-10T08:53:43;98683.94;;;2.58;100.00
35519;BME280;21627;48.216;16.482;2022-12-10T08:56:11;98671.94;;;2.51;100.00
35519;BME280;21627;48.216;16.482;2022-12-10T08:58:39;98663.31;;;2.44;100.00
35519;BME280;21627;48.216;16.482;2022-12-10T09:01:13;98679.53;;;2.49;100.00
35519;BME280;21627;48.216;16.482;2022-12-10T09:03:41;98682.91;;;2.47;100.00
35519;BME280;21627;48.216;16.482;2022-12-10T09:06:11;98691.47;;;2.50;100.00
35519;BME280;21627;48.216;16.482;2022-12-10T09:08:39;98693.28;;;2.59;100.00
35519;BME280;21627;48.216;16.482;2022-12-10T09:11:29;98697.69;;;2.68;100.00
35519;BME280;21627;48.216;16.482;2022-12-10T09:13:58;98691.63;;;2.61;100.00
35519;BME280;21627;48.216;16.482;2022-12-10T09:16:43;98684.00;;;2.63;100.00
35519;BME280;21627;48.216;16.482;2022-12-10T09:19:10;98674.50;;;2.54;100.00
35519;BME280;21627;48.216;16.482;2022-12-10T09:21:45;98678.03;;;2.60;100.00
35519;BME280;21627;48.216;16.482;2022-12-10T09:24:14;98695.19;;;2.71;100.00
35519;BME280;21627;48.216;16.482;2022-12-10T09:26:41;98697.66;;;2.65;100.00
35519;BME280;21627;48.216;16.482;2022-12-10T09:29:08;98684.00;;;2.64;100.00
35519;BME280;21627;48.216;16.482;2022-12-10T09:31:35;98680.66;;;2.67;100.00
35519;BME280;21627;48.216;16.482;2022-12-10T09:34:02;98673.88;;;2.67;100.00
35519;BME280;21627;48.216;16.482;2022-12-10T09:36:29;98674.75;;;2.71;100.00
35519;BME280;21627;48.216;16.482;2022-12-10T09:39:00;98652.53;;;2.64;100.00
35519;BME280;21627;48.216;16.482;2022-12-10T09:41:47;98649.09;;;2.60;100.00
35519;BME280;21627;48.216;16.482;2022-12-10T09:47:13;98676.53;;;2.75;100.00
35519;BME280;21627;48.216;16.482;2022-12-10T09:52:18;98679.19;;;2.83;100.00
35519;BME280;21627;48.216;16.482;2022-12-10T09:55:09;98685.97;;;2.82;100.00
35519;BME280;21627;48.216;16.482;2022-12-10T09:57:49;98692.81;;;2.83;100.00
35519;BME280;21627;48.216;16.482;2022-12-10T10:00:49;98693.63;;;2.80;100.00
35519;BME280;21627;48.216;16.482;2022-12-10T10:03:17;98697.03;;;2.81;100.00
35519;BME280;21627;48.216;16.482;2022-12-10T10:05:48;98696.22;;;2.84;100.00
35519;BME280;21627;48.216;16.482;2022-12-10T10:08:40;98684.34;;;2.86;100.00
35519;BME280;21627;48.216;16.482;2022-12-10T10:11:18;98682.66;;;2.88;100.00
35519;BME280;21627;48.216;16.482;2022-12-10T10:13:58;98674.13;;;2.87;100.00
35519;BME280;21627;48.216;16.482;2022-12-10T10:16:36;98643.38;;;2.79;100.00
35519;BME280;21627;48.216;16.482;2022-12-10T10:19:21;98650.41;;;2.96;100.00
35519;BME280;21627;48.216;16.482;2022-12-10T10:21:51;98648.69;;;2.93;100.00
35519;BME280;21627;48.216;16.482;2022-12-10T10:24:23;98651.28;;;2.96;100.00
35519;BME280;21627;48.216;16.482;2022-12-10T10:26:57;98659.94;;;3.08;100.00
35519;BME280;21627;48.216;16.482;2022-12-10T10:29:24;98667.63;;;3.12;100.00
35519;BME280;21627;48.216;16.482;2022-12-10T10:32:13;98672.81;;;3.20;100.00
35519;BME280;21627;48.216;16.482;2022-12-10T10:34:42;98662.66;;;3.21;100.00
35519;BME280;21627;48.216;16.482;2022-12-10T10:40:01;98652.50;;;3.29;100.00
35519;BME280;21627;48.216;16.482;2022-12-10T10:42:36;98661.97;;;3.36;100.00
35519;BME280;21627;48.216;16.482;2022-12-10T10:45:50;98658.53;;;3.33;100.00
35519;BME280;21627;48.216;16.482;2022-12-10T10:48:13;98649.25;;;3.42;100.00
35519;BME280;21627;48.216;16.482;2022-12-10T10:50:44;98655.22;;;3.41;100.00
35519;BME280;21627;48.216;16.482;2022-12-10T10:56:18;98639.13;;;3.52;100.00
35519;BME280;21627;48.216;16.482;2022-12-10T11:01:20;98631.47;;;3.55;100.00
35519;BME280;21627;48.216;16.482;2022-12-10T11:03:53;98619.53;;;3.52;100.00
35519;BME280;21627;48.216;16.482;2022-12-10T11:06:21;98613.59;;;3.55;100.00
35519;BME280;21627;48.216;16.482;2022-12-10T11:08:52;98601.69;;;3.54;100.00
35519;BME280;21627;48.216;16.482;2022-12-10T11:11:34;98599.13;;;3.57;100.00
35519;BME280;21627;48.216;16.482;2022-12-10T11:14:31;98595.72;;;3.56;100.00
35519;BME280;21627;48.216;16.482;2022-12-10T11:17:19;98601.66;;;3.55;100.00
35519;BME280;21627;48.216;16.482;2022-12-10T11:20:01;98598.28;;;3.53;100.00
35519;BME280;21627;48.216;16.482;2022-12-10T11:22:33;98603.41;;;3.58;100.00
35519;BME280;21627;48.216;16.482;2022-12-10T11:25:00;98600.81;;;3.53;100.00
35519;BME280;21627;48.216;16.482;2022-12-10T11:28:01;98612.72;;;3.53;100.00
35519;BME280;21627;48.216;16.482;2022-12-10T11:30:33;98600.03;;;3.62;100.00
35519;BME280;21627;48.216;16.482;2022-12-10T11:33:38;98588.97;;;3.61;100.00
35519;BME280;21627;48.216;16.482;2022-12-10T11:44:49;98589.63;;;3.42;100.00
35519;BME280;21627;48.216;16.482;2022-12-10T11:50:19;98580.06;;;3.21;100.00
35519;BME280;21627;48.216;16.482;2022-12-10T11:56:56;98586.09;;;3.29;100.00
35519;BME280;21627;48.216;16.482;2022-12-10T11:59:36;98592.84;;;3.21;100.00
35519;BME280;21627;48.216;16.482;2022-12-10T12:14:12;98583.47;;;3.21;100.00
35519;BME280;21627;48.216;16.482;2022-12-10T12:16:55;98574.13;;;3.23;100.00
35519;BME280;21627;48.216;16.482;2022-12-10T12:19:43;98583.50;;;3.23;100.00
35519;BME280;21627;48.216;16.482;2022-12-10T12:22:27;98586.03;;;3.24;100.00
35519;BME280;21627;48.216;16.482;2022-12-10T12:25:06;98593.66;;;3.20;100.00
35519;BME280;21627;48.216;16.482;2022-12-10T12:27:45;98591.97;;;3.22;100.00
35519;BME280;21627;48.216;16.482;2022-12-10T12:30:22;98580.88;;;3.18;100.00
35519;BME280;21627;48.216;16.482;2022-12-10T12:35:51;98581.72;;;3.16;100.00
35519;BME280;21627;48.216;16.482;2022-12-10T12:38:47;98568.09;;;3.17;100.00
35519;BME280;21627;48.216;16.482;2022-12-10T12:44:18;98568.94;;;3.17;100.00
35519;BME280;21627;48.216;16.482;2022-12-10T12:46:49;98572.38;;;3.18;100.00
35519;BME280;21627;48.216;16.482;2022-12-10T12:49:36;98565.41;;;3.04;100.00
35519;BME280;21627;48.216;16.482;2022-12-10T12:52:31;98550.91;;;3.00;100.00
35519;BME280;21627;48.216;16.482;2022-12-10T12:55:04;98562.03;;;3.06;100.00
35519;BME280;21627;48.216;16.482;2022-12-10T12:57:46;98577.41;;;3.10;100.00
35519;BME280;21627;48.216;16.482;2022-12-10T13:00:19;98585.09;;;3.13;100.00
35519;BME280;21627;48.216;16.482;2022-12-10T13:05:38;98582.59;;;3.19;100.00
35519;BME280;21627;48.216;16.482;2022-12-10T13:13:34;98586.84;;;3.19;100.00
35519;BME280;21627;48.216;16.482;2022-12-10T13:31:21;98613.22;;;3.16;100.00
35519;BME280;21627;48.216;16.482;2022-12-10T13:33:18;98624.28;;;3.15;100.00
35519;BME280;21627;48.216;16.482;2022-12-10T13:35:58;98615.72;;;3.15;100.00
35519;BME280;21627;48.216;16.482;2022-12-10T13:38:41;98600.38;;;3.12;100.00
35519;BME280;21627;48.216;16.482;2022-12-10T13:41:21;98592.66;;;3.07;100.00
35519;BME280;21627;48.216;16.482;2022-12-10T13:50:40;98600.34;;;3.09;100.00
35519;BME280;21627;48.216;16.482;2022-12-10T14:01:50;98609.69;;;3.05;100.00
35519;BME280;21627;48.216;16.482;2022-12-10T14:04:45;98604.53;;;3.00;100.00
35519;BME280;21627;48.216;16.482;2022-12-10T14:07:18;98591.66;;;2.93;100.00
35519;BME280;21627;48.216;16.482;2022-12-10T14:09:53;98604.50;;;2.97;100.00
35519;BME280;21627;48.216;16.482;2022-12-10T14:12:33;98591.66;;;2.94;100.00
35519;BME280;21627;48.216;16.482;2022-12-10T14:15:08;98569.47;;;2.89;100.00
35519;BME280;21627;48.216;16.482;2022-12-10T14:17:43;98600.22;;;2.96;100.00
35519;BME280;21627;48.216;16.482;2022-12-10T14:20:18;98587.38;;;2.90;100.00
35519;BME280;21627;48.216;16.482;2022-12-10T14:22:49;98601.16;;;3.03;100.00
35519;BME280;21627;48.216;16.482;2022-12-10T14:25:21;98600.25;;;2.99;100.00
35519;BME280;21627;48.216;16.482;2022-12-10T14:27:53;98596.00;;;3.00;100.00
35519;BME280;21627;48.216;16.482;2022-12-10T14:30:25;98594.22;;;2.94;100.00
35519;BME280;21627;48.216;16.482;2022-12-10T14:32:56;98614.66;;;2.94;100.00
35519;BME280;21627;48.216;16.482;2022-12-10T14:35:28;98605.97;;;2.81;100.00
35519;BME280;21627;48.216;16.482;2022-12-10T14:37:58;98600.06;;;2.84;100.00
35519;BME280;21627;48.216;16.482;2022-12-10T14:40:38;98597.53;;;2.86;100.00
35519;BME280;21627;48.216;16.482;2022-12-10T14:43:15;98606.09;;;2.92;100.00
35519;BME280;21627;48.216;16.482;2022-12-10T14:45:55;98602.59;;;2.84;100.00
35519;BME280;21627;48.216;16.482;2022-12-10T14:48:24;98599.19;;;2.82;100.00
35519;BME280;21627;48.216;16.482;2022-12-10T14:50:52;98599.19;;;2.80;100.00
35519;BME280;21627;48.216;16.482;2022-12-10T14:53:26;98588.91;;;2.76;100.00
35519;BME280;21627;48.216;16.482;2022-12-10T14:56:26;98589.75;;;2.76;100.00
35519;BME280;21627;48.216;16.482;2022-12-10T14:59:16;98606.09;;;2.91;100.00
35519;BME280;21627;48.216;16.482;2022-12-10T15:01:54;98606.84;;;2.82;100.00